Alma, Michigan
Current Conditions -  °F | °C
As of 4:54 AM on Saturday 29 Nov 2014 (Local Time) from KAMN Reporting Station
Broken Clouds Broken Clouds  
Wind Chill: -3°   Ceiling: 12000
Heat Index: -3°   Visibility: 7mi
Dew Point: -5°   Wind: 3mph
Humidity: 91%   Direction: 150°SSE
Pressure: 29.91"   Gusts: NA
Location:  43.38°N, 84.66°W
Report Text: KAMN 290954Z AUTO 15003KT 7SM SCT070 BKN120 M03/M05 A2991 RMK AO2 T10331046
Loading
Personal Weather Stations






























Interactive Weather Map New forecast layout! Learn more

10-Day Weather Forecast

Advertisements
Track Severe Weather on mobile